Long Beach, Indiana
Current Conditions -  °F | °C
As of 6:55 AM on Monday 20 Oct 2014 (Local Time) from KMGC Reporting Station
Clear Clear  
Wind Chill: 44°   Ceiling: Unl
Heat Index: 46°   Visibility: 10mi
Dew Point: 41°   Wind: 6mph
Humidity: 81%   Direction: 190°S
Pressure: 29.83"   Gusts: NA
Location:  41.687°N, 86.8677°W
Report Text: KMGC 201155Z AUTO 19005KT 10SM CLR 08/05 A2983 RMK AO2
Loading
Personal Weather Stations






























Interactive Weather Map
Tropical Storm Tracking
New forecast layout! Learn more

10-Day Weather Forecast

Advertisements
Track Severe Weather on mobile